Time;durP1;ratioP1;P1;durP2;ratioP2;P2;SDS_P1;SDS_P2;PMS_P1;PMS_P2;Temp;Humidity;BMP_temperature;BMP_pressure;BME280_temperature;BME280_humidity;BME280_pressure;Samples;Min_cycle;Max_cycle;Signal;HPM_P1;HPM_P2
2024/04/20 00:00:44;;;;;;;0.30;0.30;;;;;;;7.72;90.28;98627.75;5527571;25;19997;-63
2024/04/20 00:03:17;;;;;;;0.40;0.40;;;;;;;7.77;90.29;98626.03;5525560;26;20014;-63
2024/04/20 00:05:48;;;;;;;0.40;0.40;;;;;;;7.78;90.26;98627.69;5527178;26;20015;-63
2024/04/20 00:08:19;;;;;;;0.20;0.20;;;;;;;7.78;90.38;98625.16;5525967;26;20009;-63
2024/04/20 00:10:49;;;;;;;0.35;0.35;;;;;;;7.77;90.32;98627.72;5527709;25;19998;-63
2024/04/20 00:13:20;;;;;;;0.50;0.50;;;;;;;7.75;90.72;98632.78;5527136;26;20073;-63
2024/04/20 00:15:50;;;;;;;0.80;0.80;;;;;;;7.73;90.91;98624.31;5527229;25;19997;-63
2024/04/20 00:18:23;;;;;;;0.50;0.50;;;;;;;7.75;90.55;98626.88;5527686;26;19997;-63
2024/04/20 00:20:55;;;;;;;0.60;0.60;;;;;;;7.76;90.95;98631.09;5527174;26;20037;-63
2024/04/20 00:23:25;;;;;;;0.88;0.85;;;;;;;7.75;91.04;98622.63;5527005;25;20070;-63
2024/04/20 00:25:56;;;;;;;0.73;0.73;;;;;;;7.78;90.95;98627.69;5527035;26;19994;-63
2024/04/20 00:28:27;;;;;;;0.60;0.60;;;;;;;7.72;91.19;98622.66;5525294;26;19997;-63
2024/04/20 00:31:00;;;;;;;0.63;0.63;;;;;;;7.74;91.33;98626.03;5524374;26;20369;-62
2024/04/20 00:33:35;;;;;;;0.65;0.65;;;;;;;7.79;91.10;98629.38;5526876;25;20393;-63
2024/04/20 00:36:06;;;;;;;0.45;0.45;;;;;;;7.78;90.93;98625.16;5526903;26;20368;-63
2024/04/20 00:38:37;;;;;;;0.55;0.55;;;;;;;7.74;90.94;98631.09;5524968;26;20317;-63
2024/04/20 00:41:07;;;;;;;0.43;0.43;;;;;;;7.71;90.95;98625.19;5530444;25;20001;-63
2024/04/20 00:43:38;;;;;;;0.30;0.30;;;;;;;7.72;91.23;98622.66;5530645;26;20440;-63
2024/04/20 00:46:10;;;;;;;0.40;0.40;;;;;;;7.72;91.22;98626.88;5497736;26;20006;-63
2024/04/20 00:48:43;;;;;;;0.70;0.70;;;;;;;7.69;91.05;98622.66;5530204;26;20009;-63
2024/04/20 00:51:16;;;;;;;0.30;0.30;;;;;;;7.57;90.95;98597.34;5530854;25;20008;-63
2024/04/20 00:53:48;;;;;;;1.48;1.35;;;;;;;7.68;90.81;98625.22;5530194;26;20049;-63
2024/04/20 00:56:19;;;;;;;0.30;0.30;;;;;;;7.55;90.91;98604.16;5528481;26;20005;-63
2024/04/20 00:58:50;;;;;;;0.30;0.30;;;;;;;7.61;91.05;98619.31;5530530;25;20009;-63
2024/04/20 01:01:21;;;;;;;0.43;0.43;;;;;;;7.63;90.71;98621.88;5530416;26;20009;-63
2024/04/20 01:03:56;;;;;;;0.32;0.32;;;;;;;7.63;90.77;98626.94;5530261;25;19997;-63
2024/04/20 01:06:26;;;;;;;0.40;0.40;;;;;;;7.65;90.59;98626.09;5528554;26;19998;-63
2024/04/20 01:08:57;;;;;;;1.38;0.95;;;;;;;7.68;90.76;98628.59;5528098;26;20072;-63
2024/04/20 01:11:28;;;;;;;0.52;0.52;;;;;;;7.70;90.78;98631.13;5530082;26;20073;-63
2024/04/20 01:14:02;;;;;;;0.52;0.52;;;;;;;7.74;90.94;98625.19;5528041;26;20362;-63
2024/04/20 01:16:33;;;;;;;0.40;0.40;;;;;;;7.72;90.40;98622.66;5528205;26;20069;-63
2024/04/20 01:19:08;;;;;;;0.50;0.50;;;;;;;7.74;90.18;98618.41;5529802;26;20033;-63
2024/04/20 01:21:38;;;;;;;0.50;0.50;;;;;;;7.76;90.12;98614.16;5529953;25;20001;-63
2024/04/20 01:24:16;;;;;;;0.50;0.50;;;;;;;7.71;90.38;98618.41;5529799;25;20008;-63
2024/04/20 01:26:50;;;;;;;0.40;0.40;;;;;;;7.71;90.44;98625.19;5530095;25;20014;-63
2024/04/20 01:29:20;;;;;;;0.55;0.55;;;;;;;7.76;90.29;98626.84;5529902;25;20009;-63
2024/04/20 01:31:51;;;;;;;0.52;0.52;;;;;;;7.77;90.28;98626.03;5530063;26;19997;-63
2024/04/20 01:34:22;;;;;;;1.60;1.35;;;;;;;7.70;90.38;98619.25;5529898;25;20012;-63
2024/04/20 01:36:52;;;;;;;0.22;0.22;;;;;;;7.73;90.25;98624.31;5529702;25;20001;-63
2024/04/20 01:39:23;;;;;;;0.30;0.30;;;;;;;7.75;90.26;98621.81;5529715;25;20001;-63
2024/04/20 01:41:56;;;;;;;0.70;0.57;;;;;;;7.71;90.30;98620.97;5529910;26;20009;-63
2024/04/20 01:44:27;;;;;;;0.47;0.47;;;;;;;7.69;89.97;98627.75;5527732;26;19993;-63
2024/04/20 01:46:57;;;;;;;0.40;0.40;;;;;;;7.65;90.13;98618.47;5527792;26;20012;-63
2024/04/20 01:49:28;;;;;;;1.48;1.15;;;;;;;7.56;90.45;98626.13;5529402;25;20479;-63
2024/04/20 01:51:59;;;;;;;1.27;1.00;;;;;;;7.52;90.23;98627.00;5528421;25;20435;-63
2024/04/20 01:54:29;;;;;;;0.40;0.40;;;;;;;7.48;90.41;98632.09;5529528;25;20013;-63
2024/04/20 01:57:03;;;;;;;0.45;0.45;;;;;;;7.42;90.21;98620.28;5529443;25;20008;-63
2024/04/20 01:59:34;;;;;;;0.60;0.60;;;;;;;7.31;90.02;98624.59;5529686;25;20029;-63
2024/04/20 02:02:04;;;;;;;3.75;1.42;;;;;;;7.24;89.70;98608.56;5527481;26;19997;-62
2024/04/20 02:04:36;;;;;;;1.60;1.35;;;;;;;7.36;90.30;98627.94;5529260;26;20025;-63
2024/04/20 02:07:07;;;;;;;0.40;0.40;;;;;;;7.45;90.57;98632.97;5528983;26;20012;-63
2024/04/20 02:09:37;;;;;;;0.40;0.40;;;;;;;7.53;90.24;98638.84;5529097;25;20097;-63
2024/04/20 02:12:11;;;;;;;0.50;0.50;;;;;;;7.57;90.58;98637.97;5529456;25;20001;-63
2024/04/20 02:14:42;;;;;;;0.70;0.70;;;;;;;7.60;90.17;98637.13;5529059;26;20025;-63
2024/04/20 02:17:12;;;;;;;0.60;0.60;;;;;;;7.60;90.42;98632.88;5529099;25;20012;-63
2024/04/20 02:19:43;;;;;;;0.52;0.52;;;;;;;7.58;90.38;98637.13;5529090;26;20436;-63
2024/04/20 02:22:13;;;;;;;1.65;1.42;;;;;;;7.55;90.10;98637.16;5529436;25;20487;-63
2024/04/20 02:24:44;;;;;;;0.82;0.47;;;;;;;7.52;90.64;98631.22;5527114;26;20001;-63
2024/04/20 02:27:18;;;;;;;1.10;1.00;;;;;;;7.50;90.61;98633.78;5528863;25;20033;-63
2024/04/20 02:29:49;;;;;;;2.50;1.35;;;;;;;7.06;90.73;98572.25;5528599;26;20029;-63
2024/04/20 02:32:20;;;;;;;1.20;0.70;;;;;;;7.41;90.83;98633.84;5529237;25;20013;-63
2024/04/20 02:34:51;;;;;;;0.93;0.93;;;;;;;7.38;90.72;98638.94;5528794;25;20002;-63
2024/04/20 02:37:21;;;;;;;0.70;0.70;;;;;;;7.37;91.23;98635.53;5528866;26;20001;-63
2024/04/20 02:39:52;;;;;;;1.35;0.77;;;;;;;7.38;91.38;98636.38;5528977;26;20005;-63
2024/04/20 02:42:25;;;;;;;0.95;0.93;;;;;;;7.30;91.22;98630.50;5528749;25;20001;-62
2024/04/20 02:44:56;;;;;;;1.15;0.98;;;;;;;7.31;91.62;98630.50;5528976;26;19998;-63
2024/04/20 02:47:26;;;;;;;0.70;0.70;;;;;;;7.37;91.98;98639.75;5527285;26;19997;-63
2024/04/20 02:49:57;;;;;;;0.40;0.40;;;;;;;7.33;91.88;98622.88;5528639;25;20016;-63
2024/04/20 02:52:28;;;;;;;1.60;1.50;;;;;;;7.33;92.18;98630.50;5528461;26;20013;-63
2024/04/20 02:54:56;;;;;;;1.23;1.15;;;;;;;7.30;92.23;98633.03;5528487;26;19998;-63
2024/04/20 02:57:29;;;;;;;1.17;0.73;;;;;;;7.15;91.80;98617.91;5528725;26;20016;-63
2024/04/20 03:00:00;;;;;;;1.65;1.20;;;;;;;7.11;92.10;98637.34;5526947;26;20009;-63
2024/04/20 03:02:32;;;;;;;0.40;0.40;;;;;;;6.98;91.95;98630.63;5528648;26;20467;-62
2024/04/20 03:05:04;;;;;;;0.30;0.30;;;;;;;6.81;91.91;98611.25;5528072;26;20336;-63
2024/04/20 03:07:35;;;;;;;0.70;0.70;;;;;;;6.89;91.81;98634.88;5528515;26;20025;-63
2024/04/20 03:10:06;;;;;;;0.95;0.93;;;;;;;6.83;92.14;98635.75;5557914;25;20001;-63
2024/04/20 03:12:39;;;;;;;1.00;0.90;;;;;;;6.78;91.99;98634.06;5528548;25;20002;-63
2024/04/20 03:15:10;;;;;;;0.57;0.57;;;;;;;6.81;92.31;98637.47;5528205;26;20002;-63
2024/04/20 03:17:41;;;;;;;0.38;0.38;;;;;;;6.82;92.58;98638.28;5528578;25;20033;-63
2024/04/20 03:20:12;;;;;;;0.40;0.40;;;;;;;6.73;92.72;98634.09;5528162;26;20001;-63
2024/04/20 03:22:42;;;;;;;1.48;0.85;;;;;;;6.77;92.52;98640.00;5526632;26;20008;-63
2024/04/20 03:25:15;;;;;;;0.50;0.50;;;;;;;6.75;92.53;98643.38;5526253;26;20389;-63
2024/04/20 03:27:49;;;;;;;0.75;0.75;;;;;;;6.76;92.64;98644.22;5528112;26;20065;-63
2024/04/20 03:30:19;;;;;;;0.57;0.57;;;;;;;6.78;93.23;98651.81;5527886;26;20361;-63
2024/04/20 03:32:50;;;;;;;1.13;1.13;;;;;;;6.77;93.37;98645.91;5528332;25;20014;-63
2024/04/20 03:35:21;;;;;;;0.75;0.75;;;;;;;6.77;93.49;98645.09;5528156;25;20011;-62
2024/04/20 03:37:51;;;;;;;1.38;1.20;;;;;;;6.77;93.54;98642.56;5528258;25;20001;-63
2024/04/20 03:40:22;;;;;;;0.70;0.70;;;;;;;6.80;93.76;98653.50;5528113;25;20005;-63
2024/04/20 03:42:55;;;;;;;2.05;0.68;;;;;;;6.88;93.85;98654.34;5527935;26;19997;-63
2024/04/20 03:45:26;;;;;;;0.40;0.40;;;;;;;6.88;93.55;98658.56;5528259;25;20389;-62
2024/04/20 03:47:57;;;;;;;0.30;0.30;;;;;;;6.88;93.92;98659.41;5527783;26;20100;-63
2024/04/20 03:50:27;;;;;;;0.38;0.38;;;;;;;6.80;94.16;98645.06;5527668;26;19998;-63
2024/04/20 03:52:58;;;;;;;0.32;0.32;;;;;;;6.83;93.99;98655.19;5527859;26;20432;-63
2024/04/20 03:55:29;;;;;;;1.20;0.95;;;;;;;6.81;93.87;98651.81;5527642;25;19997;-63
2024/04/20 03:58:02;;;;;;;1.38;0.70;;;;;;;6.83;94.08;98665.34;5527730;25;20009;-63
2024/04/20 04:00:33;;;;;;;0.30;0.30;;;;;;;6.78;93.97;98662.81;5527386;26;20001;-63
2024/04/20 04:03:04;;;;;;;0.80;0.80;;;;;;;6.78;94.02;98661.97;5527640;25;20009;-63
2024/04/20 04:05:34;;;;;;;1.13;1.05;;;;;;;6.73;94.28;98660.28;5527554;26;20004;-63
2024/04/20 04:08:05;;;;;;;0.75;0.75;;;;;;;6.69;94.03;98668.72;5527458;26;19997;-63
2024/04/20 04:10:35;;;;;;;0.20;0.20;;;;;;;6.67;93.84;98665.34;5527489;25;20033;-63
2024/04/20 04:13:12;;;;;;;0.20;0.20;;;;;;;6.49;93.93;98640.06;5527264;25;20077;-62
2024/04/20 04:15:43;;;;;;;0.50;0.50;;;;;;;6.65;94.44;98671.28;5526370;26;20012;-63
2024/04/20 04:18:16;;;;;;;0.55;0.55;;;;;;;6.64;94.46;98670.47;5527129;26;20002;-63
2024/04/20 04:20:47;;;;;;;0.77;0.77;;;;;;;6.55;94.66;98655.25;5527072;25;19994;-63
2024/04/20 04:23:17;;;;;;;0.30;0.30;;;;;;;6.55;94.45;98670.44;5525285;26;20005;-63
2024/04/20 04:25:49;;;;;;;0.35;0.35;;;;;;;6.55;94.37;98680.59;5526922;25;20374;-63
2024/04/20 04:28:22;;;;;;;0.30;0.30;;;;;;;6.47;94.53;98658.66;5525206;26;19998;-63
2024/04/20 04:30:53;;;;;;;0.20;0.20;;;;;;;6.54;94.57;98673.84;5526995;25;20439;-63
2024/04/20 04:33:23;;;;;;;0.25;0.25;;;;;;;6.55;94.54;98680.59;5526929;25;20041;-63
2024/04/20 04:35:58;;;;;;;0.40;0.40;;;;;;;6.41;94.73;98667.09;5527332;25;20001;-63
2024/04/20 04:38:29;;;;;;;0.20;0.20;;;;;;;6.57;94.33;98693.28;5524955;26;20022;-63
2024/04/20 04:40:59;;;;;;;0.30;0.30;;;;;;;6.58;94.48;98689.88;5527502;26;20073;-63
2024/04/20 04:43:33;;;;;;;0.40;0.40;;;;;;;6.60;94.74;98699.16;5526806;25;20012;-63
2024/04/20 04:46:03;;;;;;;0.73;0.73;;;;;;;6.61;94.98;98693.28;5526723;25;19997;-63
2024/04/20 04:48:34;;;;;;;0.30;0.30;;;;;;;6.62;94.90;98702.53;5526454;26;20000;-63
2024/04/20 04:51:06;;;;;;;0.40;0.40;;;;;;;6.63;95.01;98693.25;5524766;26;19997;-63
2024/04/20 04:53:36;;;;;;;0.50;0.50;;;;;;;6.62;95.06;98702.53;5526500;25;20073;-63
2024/04/20 04:56:07;;;;;;;0.40;0.40;;;;;;;6.65;95.16;98706.78;5526677;25;20009;-63
2024/04/20 04:58:40;;;;;;;0.25;0.25;;;;;;;6.68;95.17;98707.63;5526741;25;20008;-63
2024/04/20 05:01:12;;;;;;;0.25;0.25;;;;;;;6.68;95.42;98707.63;5526689;26;20002;-62
2024/04/20 05:03:43;;;;;;;0.40;0.40;;;;;;;6.68;94.99;98712.69;5526500;25;20002;-63
2024/04/20 05:06:13;;;;;;;0.17;0.17;;;;;;;6.54;95.25;98684.00;5526599;25;20034;-63
2024/04/20 05:08:44;;;;;;;0.30;0.30;;;;;;;6.66;95.23;98704.25;5526165;25;19998;-63
2024/04/20 05:11:14;;;;;;;0.30;0.30;;;;;;;6.75;95.26;98716.91;5526458;25;20518;-63
2024/04/20 05:13:48;;;;;;;0.20;0.20;;;;;;;6.78;95.03;98717.75;5526203;25;20017;-62
2024/04/20 05:16:19;;;;;;;0.30;0.30;;;;;;;6.78;95.24;98717.75;5526507;25;20068;-62
2024/04/20 05:18:49;;;;;;;0.60;0.60;;;;;;;6.81;95.39;98727.91;5525982;26;19997;-63
2024/04/20 05:21:20;;;;;;;0.50;0.50;;;;;;;6.84;95.83;98722.84;5524468;26;19998;-63
2024/04/20 05:23:50;;;;;;;0.30;0.30;;;;;;;6.84;95.55;98725.38;5526002;26;20444;-63
2024/04/20 05:26:23;;;;;;;0.32;0.32;;;;;;;6.85;95.74;98729.56;5524878;26;20009;-63
2024/04/20 05:28:56;;;;;;;0.30;0.30;;;;;;;6.88;95.73;98734.66;5530306;26;20410;-63
2024/04/20 05:31:28;;;;;;;0.22;0.22;;;;;;;6.93;95.88;98733.81;5529738;25;20005;-62
2024/04/20 05:34:00;;;;;;;0.30;0.30;;;;;;;6.96;95.87;98738.84;5529551;26;20013;-63
2024/04/20 05:36:30;;;;;;;0.30;0.30;;;;;;;7.01;96.34;98741.38;5527356;26;20339;-63
2024/04/20 05:39:01;;;;;;;0.40;0.40;;;;;;;6.92;96.18;98732.09;5529609;26;20033;-63
2024/04/20 05:41:31;;;;;;;0.40;0.40;;;;;;;7.01;95.75;98741.38;5527935;26;20008;-63
2024/04/20 05:44:05;;;;;;;0.20;0.20;;;;;;;7.08;95.56;98748.16;5528130;26;19997;-63
2024/04/20 05:46:36;;;;;;;0.30;0.30;;;;;;;7.13;95.71;98751.50;5529943;25;20001;-63
2024/04/20 05:49:07;;;;;;;0.30;0.30;;;;;;;7.20;95.36;98760.78;5529846;25;20009;-63
2024/04/20 05:51:38;;;;;;;0.20;0.20;;;;;;;7.24;95.53;98752.34;5529405;26;20069;-62
2024/04/20 05:54:08;;;;;;;0.30;0.30;;;;;;;7.30;95.68;98765.00;5529465;25;20002;-63
2024/04/20 05:56:39;;;;;;;0.32;0.32;;;;;;;7.34;95.27;98772.59;5529499;26;20008;-63
2024/04/20 05:59:12;;;;;;;0.50;0.50;;;;;;;7.34;95.21;98767.50;5528148;26;20009;-62
2024/04/20 06:01:43;;;;;;;0.30;0.30;;;;;;;7.46;94.92;98786.13;5529593;25;20008;-62
2024/04/20 06:04:13;;;;;;;2.38;1.10;;;;;;;7.48;94.60;98780.19;5526490;26;20006;-63
2024/04/20 06:06:44;;;;;;;0.32;0.32;;;;;;;7.50;94.38;98786.09;5528892;25;20006;-63
2024/04/20 06:09:15;;;;;;;0.30;0.30;;;;;;;7.51;94.22;98787.78;5529145;25;20013;-63
2024/04/20 06:11:47;;;;;;;0.50;0.50;;;;;;;7.55;94.00;98794.56;5529015;25;20093;-63
2024/04/20 06:14:21;;;;;;;0.35;0.35;;;;;;;7.54;94.12;98797.94;5527234;26;20480;-62
2024/04/20 06:16:52;;;;;;;0.43;0.43;;;;;;;7.50;93.72;98793.72;5528861;26;20011;-63
2024/04/20 06:19:22;;;;;;;0.30;0.30;;;;;;;7.54;93.35;98800.47;5529366;26;20069;-63
2024/04/20 06:21:53;;;;;;;0.50;0.50;;;;;;;7.62;93.33;98798.75;5528866;25;20408;-63
2024/04/20 06:24:24;;;;;;;0.40;0.40;;;;;;;7.68;93.34;98803.78;5528887;25;20006;-63
2024/04/20 06:26:55;;;;;;;0.30;0.30;;;;;;;7.75;93.32;98805.47;5525839;26;20004;-63
2024/04/20 06:29:28;;;;;;;0.65;0.65;;;;;;;7.75;93.38;98797.84;5529224;25;19997;-63
2024/04/20 06:31:59;;;;;;;0.22;0.22;;;;;;;7.68;92.50;98788.56;5528870;25;20002;-63
2024/04/20 06:34:30;;;;;;;0.30;0.30;;;;;;;7.79;92.41;98811.41;5528770;25;20009;-63
2024/04/20 06:37:00;;;;;;;0.50;0.50;;;;;;;7.83;92.33;98823.22;5528263;25;20082;-63
2024/04/20 06:39:35;;;;;;;0.47;0.47;;;;;;;7.84;91.47;98825.78;5528721;25;20012;-63
2024/04/20 06:42:06;;;;;;;0.75;0.75;;;;;;;7.88;91.39;98827.44;5527168;26;20001;-63
2024/04/20 06:44:39;;;;;;;0.40;0.40;;;;;;;8.01;91.36;98834.16;5527371;26;20022;-63
2024/04/20 06:47:10;;;;;;;0.40;0.40;;;;;;;7.99;90.42;98820.59;5528898;25;20002;-63
2024/04/20 06:49:41;;;;;;;0.40;0.40;;;;;;;8.11;90.50;98834.94;5528968;25;20025;-62
2024/04/20 06:52:13;;;;;;;0.30;0.30;;;;;;;8.20;89.80;98839.16;5526786;26;20001;-63
2024/04/20 06:54:44;;;;;;;0.30;0.30;;;;;;;8.30;90.01;98830.69;5528353;26;20042;-62
2024/04/20 06:57:15;;;;;;;0.25;0.25;;;;;;;8.37;89.67;98829.78;5528413;26;20049;-63
2024/04/20 06:59:48;;;;;;;0.50;0.50;;;;;;;8.31;89.22;98822.19;5528269;26;20001;-63
2024/04/20 07:02:19;;;;;;;0.38;0.38;;;;;;;8.38;89.01;98828.91;5529049;25;20438;-63
2024/04/20 07:04:51;;;;;;;0.40;0.40;;;;;;;8.48;88.83;98825.47;5528309;25;20009;-63
2024/04/20 07:07:22;;;;;;;0.30;0.30;;;;;;;8.49;88.08;98832.25;5528742;25;20005;-63
2024/04/20 07:09:53;;;;;;;0.77;0.77;;;;;;;8.70;88.22;98827.03;5528533;25;20377;-63
2024/04/20 07:12:23;;;;;;;0.40;0.40;;;;;;;8.85;88.00;98826.91;5527976;26;20020;-63
2024/04/20 07:14:57;;;;;;;0.73;0.73;;;;;;;9.01;87.79;98836.13;5526299;26;20008;-63
2024/04/20 07:17:27;;;;;;;0.38;0.38;;;;;;;9.21;87.46;98836.78;5528335;26;20081;-63
2024/04/20 07:19:58;;;;;;;0.43;0.43;;;;;;;9.55;87.08;98837.28;5528075;26;20001;-63
2024/04/20 07:22:29;;;;;;;0.40;0.40;;;;;;;9.88;86.83;98843.75;5528239;25;20038;-63
2024/04/20 07:24:59;;;;;;;0.85;0.70;;;;;;;9.79;85.93;98843.84;5528410;26;20050;-63
2024/04/20 07:27:30;;;;;;;1.02;0.93;;;;;;;9.63;84.66;98849.94;5528171;25;20068;-63
2024/04/20 07:30:04;;;;;;;0.63;0.63;;;;;;;9.58;84.13;98842.34;5528055;25;20001;-63
2024/04/20 07:32:35;;;;;;;0.50;0.50;;;;;;;9.53;83.64;98845.81;5528007;25;20005;-63
2024/04/20 07:35:05;;;;;;;0.30;0.30;;;;;;;9.43;83.40;98843.34;5527969;25;20008;-64
2024/04/20 07:37:36;;;;;;;0.40;0.40;;;;;;;9.32;82.96;98850.25;5527827;26;20001;-64
2024/04/20 07:40:08;;;;;;;0.40;0.40;;;;;;;9.06;82.98;98847.09;5528076;25;20016;-63
2024/04/20 07:42:39;;;;;;;0.50;0.50;;;;;;;9.03;83.08;98862.38;5527893;25;20014;-63
2024/04/20 07:45:13;;;;;;;0.40;0.40;;;;;;;8.96;82.90;98860.75;5527790;25;20045;-64
2024/04/20 07:47:43;;;;;;;0.60;0.60;;;;;;;9.00;83.15;98862.41;5527707;26;20013;-63
2024/04/20 07:50:15;;;;;;;0.40;0.40;;;;;;;9.09;83.08;98857.28;5527080;25;19998;-63
2024/04/20 07:52:47;;;;;;;0.40;0.40;;;;;;;9.12;82.61;98856.38;5527457;26;20033;-64
2024/04/20 07:55:18;;;;;;;0.40;0.40;;;;;;;9.29;82.64;98868.09;5527929;25;20069;-63
2024/04/20 07:57:50;;;;;;;0.43;0.43;;;;;;;9.72;83.00;98867.69;5527416;25;19997;-63
2024/04/20 08:00:23;;;;;;;0.40;0.40;;;;;;;10.01;82.51;98863.13;5527429;25;19997;-63
2024/04/20 08:02:54;;;;;;;0.35;0.35;;;;;;;10.34;82.32;98867.81;5527844;26;20002;-64
2024/04/20 08:05:25;;;;;;;0.40;0.40;;;;;;;10.32;80.42;98864.47;5525575;26;20005;-63
2024/04/20 08:07:55;;;;;;;0.30;0.30;;;;;;;10.39;79.53;98876.25;5527742;25;20001;-63
2024/04/20 08:10:28;;;;;;;0.55;0.55;;;;;;;10.49;78.51;98875.28;5527325;26;20074;-63
2024/04/20 08:12:59;;;;;;;0.30;0.30;;;;;;;10.59;77.56;98876.00;5527131;26;20029;-63
2024/04/20 08:15:33;;;;;;;0.40;0.40;;;;;;;10.81;77.42;98874.84;5527283;25;20011;-63
2024/04/20 08:18:05;;;;;;;0.40;0.40;;;;;;;10.94;76.42;98867.84;5527206;25;20002;-63
2024/04/20 08:20:35;;;;;;;0.40;0.40;;;;;;;10.91;75.21;98875.56;5527213;25;20335;-63
2024/04/20 08:23:06;;;;;;;0.30;0.30;;;;;;;11.06;74.15;98880.44;5525619;26;20026;-63
2024/04/20 08:25:37;;;;;;;0.40;0.40;;;;;;;11.24;72.82;98875.00;5527162;26;20005;-63
2024/04/20 08:28:08;;;;;;;0.55;0.55;;;;;;;11.42;72.27;98875.53;5527318;25;20012;-63
2024/04/20 08:30:44;;;;;;;0.52;0.52;;;;;;;11.68;72.11;98859.81;5525208;26;20085;-63
2024/04/20 08:33:14;;;;;;;0.32;0.32;;;;;;;11.82;71.08;98874.88;5526430;25;20001;-64
2024/04/20 08:35:45;;;;;;;0.45;0.45;;;;;;;11.77;70.50;98872.41;5526863;25;20340;-63
2024/04/20 08:38:15;;;;;;;0.75;0.75;;;;;;;11.60;69.39;98873.53;5524081;26;19998;-63
2024/04/20 08:40:48;;;;;;;0.93;0.88;;;;;;;11.44;70.10;98878.09;5527137;26;20463;-63
2024/04/20 08:43:20;;;;;;;3.47;1.95;;;;;;;11.20;69.89;98858.06;5524980;26;19997;-64
2024/04/20 08:45:56;;;;;;;0.40;0.40;;;;;;;11.07;69.08;98884.66;5526557;25;20005;-63
2024/04/20 08:48:29;;;;;;;0.40;0.40;;;;;;;10.97;70.09;98895.88;5524690;26;19997;-64
2024/04/20 08:51:03;;;;;;;0.40;0.40;;;;;;;11.04;70.54;98892.34;5526549;26;20033;-63
2024/04/20 08:53:36;;;;;;;0.40;0.40;;;;;;;11.05;71.26;98888.94;5526721;25;20002;-64
2024/04/20 08:56:07;;;;;;;0.40;0.40;;;;;;;11.09;71.44;98895.69;5526317;25;20006;-64
2024/04/20 08:58:38;;;;;;;0.50;0.50;;;;;;;11.15;71.72;98890.50;5526823;26;20069;-63
2024/04/20 09:01:15;;;;;;;0.40;0.40;;;;;;;11.24;71.57;98898.84;5528750;25;20090;-63
2024/04/20 09:03:46;;;;;;;0.30;0.30;;;;;;;11.39;71.33;98882.44;5530427;26;20340;-64
2024/04/20 09:06:17;;;;;;;0.60;0.60;;;;;;;11.53;70.73;98893.25;5530274;26;20002;-63
2024/04/20 09:08:48;;;;;;;0.40;0.40;;;;;;;11.60;71.02;98894.00;5530533;25;20452;-63
2024/04/20 09:11:19;;;;;;;0.32;0.32;;;;;;;11.56;70.44;98903.44;5530033;26;20013;-63
2024/04/20 09:13:50;;;;;;;0.32;0.32;;;;;;;11.41;70.07;98899.44;5530116;26;20005;-63
2024/04/20 09:16:24;;;;;;;0.50;0.50;;;;;;;11.35;70.45;98908.88;5497640;26;20065;-63
2024/04/20 09:18:54;;;;;;;0.65;0.65;;;;;;;11.37;70.61;98907.16;5530225;25;20004;-63
2024/04/20 09:21:27;;;;;;;0.70;0.70;;;;;;;11.70;70.47;98906.63;5530309;25;20068;-63
2024/04/20 09:24:06;;;;;;;0.65;0.65;;;;;;;11.91;70.38;98908.78;5529737;25;20009;-63
2024/04/20 09:26:37;;;;;;;0.40;0.40;;;;;;;11.93;69.70;98904.47;5529891;25;20072;-63
2024/04/20 09:29:09;;;;;;;0.38;0.38;;;;;;;11.85;69.19;98910.63;5530089;25;20005;-63
2024/04/20 09:31:42;;;;;;;0.30;0.30;;;;;;;11.74;68.38;98908.25;5529679;25;20450;-63
2024/04/20 09:34:12;;;;;;;0.50;0.50;;;;;;;11.67;68.15;98911.75;5529432;26;20014;-63
2024/04/20 09:36:45;;;;;;;0.30;0.30;;;;;;;11.42;67.71;98905.38;5529586;25;20097;-63
2024/04/20 09:39:15;;;;;;;0.30;0.30;;;;;;;11.23;68.80;98921.84;5529632;25;20001;-63
2024/04/20 09:41:50;;;;;;;0.40;0.40;;;;;;;11.03;69.56;98936.66;5529509;25;20342;-63
2024/04/20 09:44:22;;;;;;;0.47;0.47;;;;;;;10.72;70.55;98943.88;5529868;25;20001;-64
2024/04/20 09:46:56;;;;;;;0.30;0.30;;;;;;;10.31;71.63;98949.50;5529823;26;20002;-62
2024/04/20 09:49:31;;;;;;;0.38;0.38;;;;;;;9.94;72.67;98953.25;5527809;26;20090;-64
2024/04/20 09:52:13;;;;;;;0.45;0.45;;;;;;;9.64;75.10;98963.75;5529153;25;20452;-64
2024/04/20 09:54:52;;;;;;;0.50;0.50;;;;;;;9.44;76.47;98966.44;5527509;26;20018;-62
2024/04/20 09:57:25;;;;;;;24.92;1.13;;;;;;;9.29;77.37;98957.22;5527616;26;19998;-62
2024/04/20 09:59:58;;;;;;;0.40;0.40;;;;;;;9.35;78.16;98972.47;5529466;25;20002;-62
2024/04/20 10:02:33;;;;;;;0.50;0.50;;;;;;;9.43;78.68;98960.50;5529903;25;20013;-62
2024/04/20 10:05:05;;;;;;;0.40;0.40;;;;;;;9.59;79.01;98961.25;5529104;25;20041;-62
2024/04/20 10:07:38;;;;;;;0.40;0.40;;;;;;;9.97;79.17;98963.44;5528898;26;20003;-62
2024/04/20 10:10:09;;;;;;;0.40;0.40;;;;;;;10.39;79.13;98957.06;5527742;26;20507;-62
2024/04/20 10:12:40;;;;;;;0.43;0.43;;;;;;;10.83;77.83;98959.88;5528103;26;20034;-61
2024/04/20 10:15:11;;;;;;;0.30;0.30;;;;;;;11.02;76.22;98961.31;5527291;26;20008;-62
2024/04/20 10:17:44;;;;;;;0.50;0.50;;;;;;;11.23;75.47;98955.03;5529538;25;20393;-62
2024/04/20 10:20:15;;;;;;;0.30;0.30;;;;;;;11.59;73.94;98946.00;5529311;26;20013;-63
2024/04/20 10:22:47;;;;;;;0.38;0.38;;;;;;;11.78;73.71;98945.66;5529172;26;20016;-62
2024/04/20 10:25:18;;;;;;;0.40;0.40;;;;;;;11.67;70.76;98924.53;5528960;25;20002;-62
2024/04/20 10:27:52;;;;;;;0.40;0.40;;;;;;;11.73;70.81;98933.84;5529013;25;20004;-62
2024/04/20 10:30:24;;;;;;;0.40;0.40;;;;;;;12.10;71.24;98928.03;5529072;25;20010;-62
2024/04/20 10:33:09;;;;;;;0.40;0.40;;;;;;;12.46;69.66;98931.56;5528690;25;20029;-62
2024/04/20 10:35:40;;;;;;;0.50;0.50;;;;;;;12.73;69.22;98937.84;5529105;25;20076;-63
2024/04/20 10:38:11;;;;;;;0.50;0.50;;;;;;;12.95;68.41;98936.50;5528784;26;20332;-63
2024/04/20 10:40:41;;;;;;;0.30;0.30;;;;;;;12.96;67.06;98935.63;5528891;25;20016;-62
2024/04/20 10:43:14;;;;;;;0.40;0.40;;;;;;;13.09;67.53;98934.50;5528802;25;20008;-62
2024/04/20 10:45:45;;;;;;;0.40;0.40;;;;;;;12.85;67.23;98935.03;5528866;25;20037;-62
2024/04/20 10:48:18;;;;;;;0.40;0.40;;;;;;;12.58;65.65;98930.47;5528561;26;20009;-62
2024/04/20 10:50:49;;;;;;;0.50;0.50;;;;;;;12.46;66.27;98938.41;5526858;26;19993;-63
2024/04/20 10:53:17;;;;;;;0.40;0.40;;;;;;;12.63;65.93;98926.09;5526541;26;20073;-63
2024/04/20 10:55:48;;;;;;;0.40;0.40;;;;;;;12.88;64.71;98937.53;5528430;25;20042;-63
2024/04/20 10:58:18;;;;;;;0.40;0.40;;;;;;;13.25;64.61;98935.81;5528880;25;20001;-63
2024/04/20 11:00:49;;;;;;;0.40;0.40;;;;;;;13.46;64.82;98924.22;5526146;26;20073;-63
2024/04/20 11:03:24;;;;;;;0.40;0.40;;;;;;;13.48;66.05;98931.88;5528633;25;19998;-63
2024/04/20 11:05:56;;;;;;;0.40;0.40;;;;;;;13.17;65.17;98935.16;5526282;26;20012;-63
2024/04/20 11:08:27;;;;;;;0.40;0.40;;;;;;;12.69;64.23;98937.03;5528331;25;20053;-63
2024/04/20 11:10:58;;;;;;;0.30;0.30;;;;;;;12.45;64.43;98939.28;5528284;25;20001;-64
2024/04/20 11:13:29;;;;;;;0.43;0.43;;;;;;;12.14;65.40;98938.22;5526151;26;20472;-63
2024/04/20 11:16:01;;;;;;;0.40;0.40;;;;;;;11.88;67.37;98946.34;5525620;26;19994;-63
2024/04/20 11:18:34;;;;;;;0.43;0.43;;;;;;;11.63;69.48;98951.03;5528248;26;20396;-63
2024/04/20 11:21:09;;;;;;;0.35;0.35;;;;;;;11.53;71.06;98954.59;5528315;25;20009;-63
2024/04/20 11:23:39;;;;;;;0.40;0.40;;;;;;;11.35;71.16;98958.28;5527098;26;19998;-64
2024/04/20 11:26:11;;;;;;;0.30;0.30;;;;;;;11.12;71.25;98959.47;5527555;25;20009;-63
2024/04/20 11:28:42;;;;;;;0.30;0.30;;;;;;;11.05;72.57;98970.66;5528047;25;20001;-63
2024/04/20 11:31:14;;;;;;;0.30;0.30;;;;;;;11.02;72.93;98960.47;5526310;26;20475;-62
2024/04/20 11:33:51;;;;;;;0.40;0.40;;;;;;;11.07;73.88;98966.38;5527970;26;20020;-63
2024/04/20 11:36:22;;;;;;;0.40;0.40;;;;;;;11.02;73.53;98968.97;5526290;26;20452;-63
2024/04/20 11:38:53;;;;;;;0.30;0.30;;;;;;;11.02;73.70;98968.13;5526141;26;20009;-62
2024/04/20 11:41:24;;;;;;;0.50;0.50;;;;;;;11.05;73.58;98960.44;5527838;25;20451;-63
2024/04/20 11:44:06;;;;;;;0.40;0.40;;;;;;;11.08;73.16;98962.97;5526167;26;19998;-63
2024/04/20 11:46:40;;;;;;;0.40;0.40;;;;;;;11.16;73.54;98958.56;5526935;25;20033;-63
2024/04/20 11:49:18;;;;;;;0.40;0.40;;;;;;;10.88;73.33;98880.69;5527351;25;20002;-63
2024/04/20 11:54:40;;;;;;;0.40;0.40;;;;;;;11.62;73.42;98964.66;5527250;26;19997;-63
2024/04/20 11:57:11;;;;;;;0.50;0.50;;;;;;;11.74;72.09;98961.94;5525647;26;19998;-63
2024/04/20 11:59:41;;;;;;;0.40;0.40;;;;;;;11.91;71.31;98972.72;5527912;25;20029;-63
2024/04/20 12:02:12;;;;;;;0.40;0.40;;;;;;;12.13;71.28;98962.94;5527845;25;20417;-63